Time;durP1;ratioP1;P1;durP2;ratioP2;P2;SDS_P1;SDS_P2;PMS_P1;PMS_P2;Temp;Humidity;BMP_temperature;BMP_pressure;BME280_temperature;BME280_humidity;BME280_pressure;Samples;Min_cycle;Max_cycle;Signal;HPM_P1;HPM_P2
2023/04/21 00:01:38;;;;;;;54.27;40.37;;;;;;;;;;5024105;28;20543;-70
2023/04/21 00:04:05;;;;;;;52.43;40.10;;;;;;;;;;5023991;28;20617;-68
2023/04/21 00:06:31;;;;;;;57.97;41.17;;;;;;;;;;5023452;28;20207;-70
2023/04/21 00:08:57;;;;;;;59.57;40.77;;;;;;;;;;5003784;28;20283;-70
2023/04/21 00:11:23;;;;;;;53.87;43.07;;;;;;;;;;5018206;28;20238;-70
2023/04/21 00:13:49;;;;;;;56.73;41.53;;;;;;;;;;5020855;28;20180;-69
2023/04/21 00:16:15;;;;;;;54.90;38.97;;;;;;;;;;5019606;28;20638;-68
2023/04/21 00:18:42;;;;;;;58.97;41.00;;;;;;;;;;5018065;28;20191;-69
2023/04/21 00:21:08;;;;;;;57.43;39.83;;;;;;;;;;5001439;28;20191;-69
2023/04/21 00:23:34;;;;;;;56.60;39.40;;;;;;;;;;5018226;28;20184;-69
2023/04/21 00:26:01;;;;;;;58.87;39.63;;;;;;;;;;5018054;28;20677;-69
2023/04/21 00:28:27;;;;;;;57.87;41.67;;;;;;;;;;5018494;28;20175;-68
2023/04/21 00:30:53;;;;;;;58.90;42.03;;;;;;;;;;5018212;28;20192;-69
2023/04/21 00:33:19;;;;;;;58.60;39.97;;;;;;;;;;5018776;28;20184;-69
2023/04/21 00:35:46;;;;;;;56.50;40.30;;;;;;;;;;5018343;28;20634;-68
2023/04/21 00:38:11;;;;;;;54.73;39.90;;;;;;;;;;5018559;28;20187;-67
2023/04/21 00:40:37;;;;;;;49.03;34.07;;;;;;;;;;5017780;28;20215;-68
2023/04/21 00:43:06;;;;;;;54.33;38.80;;;;;;;;;;5018148;28;20180;-68
2023/04/21 00:45:32;;;;;;;53.63;37.50;;;;;;;;;;5017728;28;20205;-69
2023/04/21 00:47:58;;;;;;;54.93;38.87;;;;;;;;;;5018199;28;20207;-68
2023/04/21 00:50:25;;;;;;;54.23;39.83;;;;;;;;;;5017596;28;20203;-69
2023/04/21 00:52:50;;;;;;;55.03;36.60;;;;;;;;;;5018072;28;20199;-67
2023/04/21 00:55:16;;;;;;;56.27;38.50;;;;;;;;;;5017379;28;20172;-69
2023/04/21 00:57:43;;;;;;;55.23;37.03;;;;;;;;;;5000274;28;20180;-68
2023/04/21 01:00:09;;;;;;;52.13;35.47;;;;;;;;;;5017467;28;20251;-67
2023/04/21 01:02:36;;;;;;;45.90;28.40;;;;;;;;;;5017809;28;20172;-68
2023/04/21 01:05:03;;;;;;;55.30;38.03;;;;;;;;;;4999557;28;20542;-68
2023/04/21 01:07:29;;;;;;;55.53;41.20;;;;;;;;;;5017303;28;20267;-68
2023/04/21 01:09:55;;;;;;;57.23;39.67;;;;;;;;;;4999763;28;20242;-69
2023/04/21 01:12:21;;;;;;;52.53;32.23;;;;;;;;;;5017648;28;20180;-69
2023/04/21 01:14:47;;;;;;;49.83;32.87;;;;;;;;;;5017031;28;20184;-69
2023/04/21 01:17:13;;;;;;;59.87;38.90;;;;;;;;;;5017559;28;20187;-68
2023/04/21 01:19:41;;;;;;;58.20;42.30;;;;;;;;;;5017330;28;20204;-68
2023/04/21 01:22:10;;;;;;;60.23;41.73;;;;;;;;;;5016953;28;20187;-72
2023/04/21 01:24:39;;;;;;;59.13;42.83;;;;;;;;;;5017007;28;20171;-66
2023/04/21 01:27:10;;;;;;;61.03;40.27;;;;;;;;;;5016681;28;20199;-67
2023/04/21 01:29:36;;;;;;;67.17;42.53;;;;;;;;;;5016877;28;20691;-68
2023/04/21 01:32:06;;;;;;;61.43;38.83;;;;;;;;;;5016314;28;20251;-68
2023/04/21 01:34:32;;;;;;;58.93;40.30;;;;;;;;;;5016015;28;20203;-70
2023/04/21 01:36:58;;;;;;;65.33;44.07;;;;;;;;;;5016813;28;20183;-69
2023/04/21 01:39:24;;;;;;;59.87;39.83;;;;;;;;;;4998774;28;20277;-69
2023/04/21 01:41:50;;;;;;;54.77;36.40;;;;;;;;;;5017094;28;20556;-68
2023/04/21 01:44:16;;;;;;;63.53;43.17;;;;;;;;;;5017209;28;20202;-68
2023/04/21 01:46:42;;;;;;;68.40;46.17;;;;;;;;;;5016525;28;20737;-68
2023/04/21 01:49:08;;;;;;;65.30;41.87;;;;;;;;;;5016730;28;20674;-68
2023/04/21 01:51:34;;;;;;;68.43;43.97;;;;;;;;;;5017161;28;20191;-68
2023/04/21 01:54:00;;;;;;;62.50;38.73;;;;;;;;;;4998396;28;20321;-67
2023/04/21 01:56:26;;;;;;;64.93;41.63;;;;;;;;;;5016306;28;20180;-67
2023/04/21 01:58:52;;;;;;;69.37;44.83;;;;;;;;;;5016838;28;20704;-69
2023/04/21 02:01:18;;;;;;;76.13;48.30;;;;;;;;;;4998858;28;20192;-67
2023/04/21 02:03:44;;;;;;;93.53;57.43;;;;;;;;;;5016299;28;20184;-68
2023/04/21 02:06:12;;;;;;;94.03;58.67;;;;;;;;;;5015986;28;20704;-68
2023/04/21 02:08:38;;;;;;;89.17;56.43;;;;;;;;;;4998108;28;20180;-67
2023/04/21 02:11:04;;;;;;;87.63;59.53;;;;;;;;;;4998482;28;20180;-67
2023/04/21 02:13:30;;;;;;;83.60;55.33;;;;;;;;;;5015915;28;20597;-66
2023/04/21 02:15:56;;;;;;;67.77;45.70;;;;;;;;;;5016329;28;20553;-67
2023/04/21 02:18:22;;;;;;;79.00;51.30;;;;;;;;;;5016452;28;20266;-69
2023/04/21 02:20:48;;;;;;;75.73;48.27;;;;;;;;;;4998044;28;20204;-67
2023/04/21 02:23:15;;;;;;;59.33;38.07;;;;;;;;;;5015945;28;20202;-67
2023/04/21 02:25:40;;;;;;;68.43;45.50;;;;;;;;;;5015856;28;20241;-67
2023/04/21 02:28:06;;;;;;;54.17;35.17;;;;;;;;;;5015575;28;20577;-67
2023/04/21 02:30:34;;;;;;;65.07;44.20;;;;;;;;;;5015682;28;20548;-67
2023/04/21 02:33:00;;;;;;;66.17;43.37;;;;;;;;;;5015863;28;20207;-67
2023/04/21 02:35:26;;;;;;;68.07;44.83;;;;;;;;;;5016055;28;20171;-68
2023/04/21 02:37:52;;;;;;;55.53;33.17;;;;;;;;;;4998341;28;20180;-67
2023/04/21 02:40:18;;;;;;;67.17;41.80;;;;;;;;;;5015697;28;20215;-67
2023/04/21 02:42:44;;;;;;;68.57;45.77;;;;;;;;;;5015504;28;20172;-68
2023/04/21 02:45:10;;;;;;;69.27;45.33;;;;;;;;;;5016207;28;20183;-67
2023/04/21 02:47:36;;;;;;;70.73;45.33;;;;;;;;;;5019815;28;20199;-67
2023/04/21 02:50:03;;;;;;;67.23;45.60;;;;;;;;;;5019563;28;20272;-66
2023/04/21 02:52:29;;;;;;;67.07;42.87;;;;;;;;;;5001903;28;20203;-67
2023/04/21 02:54:55;;;;;;;62.37;40.53;;;;;;;;;;5002257;28;20179;-67
2023/04/21 02:57:20;;;;;;;66.47;42.50;;;;;;;;;;5021537;28;20210;-67
2023/04/21 02:59:46;;;;;;;68.03;46.00;;;;;;;;;;5020866;28;20203;-67
2023/04/21 03:02:12;;;;;;;62.00;41.83;;;;;;;;;;5019910;28;20180;-69
2023/04/21 03:04:38;;;;;;;58.17;36.23;;;;;;;;;;5019830;28;20238;-67
2023/04/21 03:07:04;;;;;;;54.17;33.50;;;;;;;;;;5019370;28;20207;-67
2023/04/21 03:09:30;;;;;;;62.43;41.17;;;;;;;;;;5019685;28;20203;-68
2023/04/21 03:11:56;;;;;;;59.43;39.53;;;;;;;;;;5019463;28;20237;-65
2023/04/21 03:14:22;;;;;;;63.60;41.10;;;;;;;;;;5001831;28;20271;-64
2023/04/21 03:16:48;;;;;;;69.20;41.87;;;;;;;;;;5019467;28;20226;-65
2023/04/21 03:19:14;;;;;;;68.93;44.60;;;;;;;;;;5019820;28;20196;-65
2023/04/21 03:21:40;;;;;;;63.80;43.97;;;;;;;;;;5019593;28;20172;-66
2023/04/21 03:24:07;;;;;;;63.03;41.20;;;;;;;;;;5001230;28;20187;-65
2023/04/21 03:26:33;;;;;;;65.67;43.03;;;;;;;;;;5019111;28;20207;-67
2023/04/21 03:28:59;;;;;;;70.47;44.53;;;;;;;;;;5018748;28;20210;-64
2023/04/21 03:31:25;;;;;;;73.60;45.17;;;;;;;;;;5019113;28;20529;-65
2023/04/21 03:33:51;;;;;;;66.57;44.93;;;;;;;;;;5001455;28;20187;-66
2023/04/21 03:36:17;;;;;;;71.17;46.60;;;;;;;;;;5019377;28;20184;-66
2023/04/21 03:38:43;;;;;;;74.10;48.40;;;;;;;;;;5018013;28;20558;-67
2023/04/21 03:41:09;;;;;;;61.37;38.57;;;;;;;;;;5018225;28;20219;-65
2023/04/21 03:43:35;;;;;;;66.00;42.13;;;;;;;;;;5018953;28;20176;-65
2023/04/21 03:46:01;;;;;;;71.70;47.83;;;;;;;;;;5000600;28;20632;-67
2023/04/21 03:48:28;;;;;;;76.77;47.40;;;;;;;;;;4999057;28;20175;-68
2023/04/21 03:50:54;;;;;;;70.83;44.17;;;;;;;;;;5017436;28;20255;-68
2023/04/21 03:53:20;;;;;;;73.90;46.07;;;;;;;;;;5000534;28;20271;-65
2023/04/21 03:55:47;;;;;;;74.73;48.30;;;;;;;;;;5017772;28;20203;-67
2023/04/21 03:58:14;;;;;;;73.53;49.53;;;;;;;;;;5016584;28;20227;-67
2023/04/21 04:00:40;;;;;;;76.10;48.47;;;;;;;;;;5016709;28;20207;-69
2023/04/21 04:03:06;;;;;;;78.87;48.53;;;;;;;;;;5017959;28;20184;-65
2023/04/21 04:05:32;;;;;;;73.93;49.77;;;;;;;;;;5000710;28;20551;-66
2023/04/21 04:07:58;;;;;;;82.40;51.17;;;;;;;;;;5016955;28;20172;-68
2023/04/21 04:10:24;;;;;;;71.57;47.07;;;;;;;;;;5015704;28;20207;-68
2023/04/21 04:12:50;;;;;;;87.07;52.23;;;;;;;;;;5016758;28;20176;-67
2023/04/21 04:15:16;;;;;;;79.63;50.07;;;;;;;;;;5016167;28;20183;-67
2023/04/21 04:17:42;;;;;;;77.00;49.50;;;;;;;;;;5016370;28;20654;-66
2023/04/21 04:20:08;;;;;;;85.53;52.87;;;;;;;;;;5016556;28;20246;-68
2023/04/21 04:22:34;;;;;;;80.83;51.47;;;;;;;;;;5016034;28;20222;-68
2023/04/21 04:25:00;;;;;;;74.97;48.43;;;;;;;;;;5016058;28;20204;-68
2023/04/21 04:27:29;;;;;;;78.43;51.87;;;;;;;;;;5016908;28;20628;-68
2023/04/21 04:29:56;;;;;;;79.73;49.77;;;;;;;;;;5015831;28;20196;-68
2023/04/21 04:32:22;;;;;;;85.80;54.13;;;;;;;;;;5015560;28;20563;-67
2023/04/21 04:34:48;;;;;;;86.87;52.03;;;;;;;;;;5015200;28;20547;-68
2023/04/21 04:37:14;;;;;;;78.40;48.23;;;;;;;;;;5015331;28;20201;-68
2023/04/21 04:39:40;;;;;;;74.17;47.07;;;;;;;;;;5016312;28;20246;-66
2023/04/21 04:42:10;;;;;;;86.53;52.53;;;;;;;;;;5017309;28;20207;-67
2023/04/21 04:44:36;;;;;;;78.50;50.47;;;;;;;;;;5015358;28;20639;-67
2023/04/21 04:47:03;;;;;;;80.13;50.20;;;;;;;;;;5015173;28;20199;-68
2023/04/21 04:49:29;;;;;;;80.40;50.63;;;;;;;;;;4997806;28;20701;-68
2023/04/21 04:51:55;;;;;;;83.53;53.37;;;;;;;;;;4997913;28;20180;-67
2023/04/21 04:54:21;;;;;;;74.90;45.53;;;;;;;;;;5015506;28;20179;-67
2023/04/21 04:56:46;;;;;;;78.10;50.93;;;;;;;;;;5017049;28;20180;-67
2023/04/21 04:59:12;;;;;;;76.77;51.00;;;;;;;;;;4997524;28;20210;-68
2023/04/21 05:01:40;;;;;;;75.43;49.90;;;;;;;;;;4997167;28;20180;-68
2023/04/21 05:04:06;;;;;;;73.93;48.57;;;;;;;;;;4997263;28;20738;-68
2023/04/21 05:06:32;;;;;;;80.10;50.77;;;;;;;;;;5014785;28;20206;-68
2023/04/21 05:08:58;;;;;;;80.43;50.20;;;;;;;;;;5013776;28;20286;-68
2023/04/21 05:11:24;;;;;;;78.60;51.33;;;;;;;;;;5014936;28;20207;-67
2023/04/21 05:13:50;;;;;;;71.37;49.73;;;;;;;;;;5014622;28;20258;-67
2023/04/21 05:16:16;;;;;;;73.23;48.37;;;;;;;;;;5015033;28;20204;-67
2023/04/21 05:18:42;;;;;;;69.63;45.70;;;;;;;;;;5014727;28;20551;-68
2023/04/21 05:21:08;;;;;;;68.57;44.70;;;;;;;;;;5014722;28;20202;-70
2023/04/21 05:23:34;;;;;;;68.77;46.80;;;;;;;;;;5014573;28;20259;-69
2023/04/21 05:26:00;;;;;;;70.27;46.50;;;;;;;;;;5014310;28;20694;-69
2023/04/21 05:28:28;;;;;;;72.30;48.60;;;;;;;;;;5014692;28;20593;-68
2023/04/21 05:30:54;;;;;;;75.60;50.20;;;;;;;;;;4996857;28;20650;-69
2023/04/21 05:33:20;;;;;;;76.20;49.53;;;;;;;;;;5014230;28;20262;-68
2023/04/21 05:35:46;;;;;;;70.77;47.60;;;;;;;;;;5014374;28;20180;-68
2023/04/21 05:38:12;;;;;;;66.10;46.47;;;;;;;;;;4996541;28;20184;-67
2023/04/21 05:40:38;;;;;;;66.07;45.60;;;;;;;;;;5014112;28;20224;-68
2023/04/21 05:43:04;;;;;;;57.73;42.03;;;;;;;;;;5014710;28;20641;-68
2023/04/21 05:45:30;;;;;;;56.03;41.43;;;;;;;;;;5013968;28;20187;-69
2023/04/21 05:47:56;;;;;;;51.37;38.20;;;;;;;;;;5014238;28;20200;-67
2023/04/21 05:50:23;;;;;;;46.00;33.50;;;;;;;;;;5013937;28;20200;-67
2023/04/21 05:52:49;;;;;;;40.83;31.83;;;;;;;;;;5013919;28;20210;-69
2023/04/21 05:55:15;;;;;;;42.80;32.57;;;;;;;;;;5014262;28;20180;-67
2023/04/21 05:57:41;;;;;;;37.23;28.80;;;;;;;;;;5013822;28;20529;-67
2023/04/21 06:00:07;;;;;;;41.13;33.27;;;;;;;;;;5013671;28;20250;-68
2023/04/21 06:02:33;;;;;;;42.87;28.03;;;;;;;;;;5013755;28;20184;-67
2023/04/21 06:04:59;;;;;;;40.63;30.40;;;;;;;;;;5013607;28;20194;-67
2023/04/21 06:07:25;;;;;;;41.80;33.23;;;;;;;;;;4996079;28;20219;-67
2023/04/21 06:09:51;;;;;;;38.33;30.93;;;;;;;;;;4995884;28;20231;-66
2023/04/21 06:12:17;;;;;;;40.10;32.57;;;;;;;;;;5013654;28;20184;-67
2023/04/21 06:14:43;;;;;;;44.27;33.70;;;;;;;;;;4995906;28;20202;-67
2023/04/21 06:17:09;;;;;;;44.83;34.13;;;;;;;;;;5013571;28;20176;-68
2023/04/21 06:19:38;;;;;;;41.00;33.73;;;;;;;;;;5013523;28;20199;-68
2023/04/21 06:22:04;;;;;;;44.23;34.53;;;;;;;;;;5013705;28;20191;-67
2023/04/21 06:24:33;;;;;;;46.20;36.60;;;;;;;;;;5013424;28;20187;-68
2023/04/21 06:27:00;;;;;;;51.77;39.27;;;;;;;;;;5013344;28;20266;-67
2023/04/21 06:29:26;;;;;;;56.97;40.90;;;;;;;;;;5013992;28;20282;-68
2023/04/21 06:31:52;;;;;;;57.67;41.30;;;;;;;;;;5013573;28;20203;-67
2023/04/21 06:34:20;;;;;;;51.97;40.33;;;;;;;;;;5013409;28;20572;-68
2023/04/21 06:36:46;;;;;;;48.63;39.07;;;;;;;;;;5013562;28;20172;-67
2023/04/21 06:39:12;;;;;;;51.40;40.33;;;;;;;;;;5012981;28;20223;-67
2023/04/21 06:41:38;;;;;;;49.87;38.43;;;;;;;;;;5013297;28;20175;-68
2023/04/21 06:44:03;;;;;;;46.57;37.03;;;;;;;;;;5013170;28;20258;-68
2023/04/21 06:46:30;;;;;;;51.13;37.33;;;;;;;;;;5013217;28;20622;-67
2023/04/21 06:48:56;;;;;;;50.93;37.37;;;;;;;;;;4995680;28;20196;-67
2023/04/21 06:51:22;;;;;;;47.47;36.07;;;;;;;;;;5013560;28;20172;-68
2023/04/21 06:53:47;;;;;;;49.37;36.33;;;;;;;;;;5013148;28;20212;-66
2023/04/21 06:56:13;;;;;;;45.53;36.43;;;;;;;;;;4995563;28;20180;-68
2023/04/21 06:58:39;;;;;;;50.07;34.33;;;;;;;;;;5013153;28;20184;-67
2023/04/21 07:01:05;;;;;;;51.23;37.57;;;;;;;;;;5013028;28;20211;-67
2023/04/21 07:03:31;;;;;;;48.73;38.50;;;;;;;;;;5012996;28;20179;-68
2023/04/21 07:05:57;;;;;;;53.10;38.57;;;;;;;;;;5012939;28;20230;-66
2023/04/21 07:08:24;;;;;;;51.73;37.73;;;;;;;;;;5012738;28;20578;-67
2023/04/21 07:10:50;;;;;;;49.50;37.37;;;;;;;;;;5012845;28;20199;-67
2023/04/21 07:13:16;;;;;;;49.97;37.37;;;;;;;;;;5012943;28;20264;-67
2023/04/21 07:15:42;;;;;;;43.47;36.03;;;;;;;;;;5013217;28;20263;-67
2023/04/21 07:18:08;;;;;;;43.97;34.27;;;;;;;;;;5013013;28;20172;-67
2023/04/21 07:20:34;;;;;;;45.63;35.10;;;;;;;;;;5012841;28;20234;-67
2023/04/21 07:23:00;;;;;;;44.87;36.17;;;;;;;;;;4995602;28;20549;-67
2023/04/21 07:25:26;;;;;;;48.47;37.03;;;;;;;;;;5013278;28;20172;-67
2023/04/21 07:27:52;;;;;;;45.30;34.30;;;;;;;;;;5013496;28;20210;-66
2023/04/21 07:30:18;;;;;;;44.67;34.93;;;;;;;;;;5013034;28;20250;-67
2023/04/21 07:32:45;;;;;;;44.80;33.63;;;;;;;;;;4997193;28;20212;-67
2023/04/21 07:35:11;;;;;;;44.60;33.50;;;;;;;;;;5016832;28;20234;-66
2023/04/21 07:37:39;;;;;;;41.77;32.17;;;;;;;;;;4998839;28;20187;-66
2023/04/21 07:40:05;;;;;;;39.23;31.63;;;;;;;;;;5016441;28;20215;-68
2023/04/21 07:42:33;;;;;;;38.67;29.80;;;;;;;;;;4999543;28;20207;-67
2023/04/21 07:45:00;;;;;;;41.10;31.07;;;;;;;;;;5017064;28;20183;-66
2023/04/21 07:47:26;;;;;;;42.33;32.40;;;;;;;;;;5016637;28;20211;-67
2023/04/21 07:49:52;;;;;;;42.23;31.97;;;;;;;;;;5016499;28;20681;-67
2023/04/21 07:52:18;;;;;;;39.47;31.27;;;;;;;;;;5016758;28;20206;-68
2023/04/21 07:54:44;;;;;;;40.07;30.70;;;;;;;;;;5016310;28;20184;-66
2023/04/21 07:57:10;;;;;;;38.23;29.97;;;;;;;;;;5016373;28;20263;-68
2023/04/21 07:59:36;;;;;;;38.00;28.63;;;;;;;;;;4999030;28;20211;-69
2023/04/21 08:02:02;;;;;;;40.47;30.57;;;;;;;;;;5016209;28;20175;-67
2023/04/21 08:04:28;;;;;;;43.43;32.60;;;;;;;;;;4998603;28;20184;-66
2023/04/21 08:06:54;;;;;;;44.37;32.80;;;;;;;;;;5016078;28;20581;-66
2023/04/21 08:09:20;;;;;;;40.57;31.40;;;;;;;;;;5016432;28;20603;-66
2023/04/21 08:11:46;;;;;;;35.83;26.13;;;;;;;;;;4998568;28;20180;-66
2023/04/21 08:14:13;;;;;;;36.27;27.17;;;;;;;;;;5015787;28;20278;-66
2023/04/21 08:16:42;;;;;;;38.63;30.47;;;;;;;;;;5016249;28;20709;-67
2023/04/21 08:19:08;;;;;;;35.67;30.40;;;;;;;;;;5015686;28;20635;-67
2023/04/21 08:21:34;;;;;;;36.03;29.70;;;;;;;;;;5016415;28;20551;-66
2023/04/21 08:24:00;;;;;;;36.43;25.07;;;;;;;;;;4998325;28;20191;-66
2023/04/21 08:26:28;;;;;;;35.77;28.03;;;;;;;;;;5015950;28;20196;-67
2023/04/21 08:28:54;;;;;;;39.40;32.40;;;;;;;;;;5015761;28;20192;-67
2023/04/21 08:31:20;;;;;;;40.63;30.60;;;;;;;;;;4998018;28;20233;-66
2023/04/21 08:33:46;;;;;;;41.77;31.30;;;;;;;;;;5016077;28;20251;-68
2023/04/21 08:36:12;;;;;;;37.57;31.23;;;;;;;;;;5015880;28;20564;-68
2023/04/21 08:38:39;;;;;;;34.87;30.40;;;;;;;;;;5015345;28;20184;-67
2023/04/21 08:41:05;;;;;;;38.13;31.83;;;;;;;;;;5015180;28;20271;-67
2023/04/21 08:43:32;;;;;;;41.40;30.53;;;;;;;;;;5015767;28;20352;-67
2023/04/21 08:45:59;;;;;;;34.47;29.27;;;;;;;;;;5015301;28;20305;-67
2023/04/21 08:48:25;;;;;;;37.57;30.83;;;;;;;;;;5015778;28;20259;-67
2023/04/21 08:50:52;;;;;;;38.47;30.47;;;;;;;;;;5015538;28;20201;-67
2023/04/21 08:53:18;;;;;;;36.27;29.93;;;;;;;;;;5015553;28;20211;-67
2023/04/21 08:55:44;;;;;;;37.60;28.93;;;;;;;;;;5015110;28;20180;-66
2023/04/21 08:58:12;;;;;;;39.27;32.90;;;;;;;;;;5015042;28;20226;-67
2023/04/21 09:00:40;;;;;;;38.00;30.67;;;;;;;;;;5014950;28;20615;-68
2023/04/21 09:03:07;;;;;;;35.93;27.67;;;;;;;;;;5015012;28;20195;-66
2023/04/21 09:05:33;;;;;;;34.33;27.77;;;;;;;;;;5014882;28;20176;-67
2023/04/21 09:08:13;;;;;;;34.63;29.13;;;;;;;;;;4997354;28;20188;-66
2023/04/21 09:10:46;;;;;;;33.33;27.67;;;;;;;;;;5015110;28;20269;-66
2023/04/21 09:13:12;;;;;;;37.90;28.00;;;;;;;;;;5014787;28;20254;-66
2023/04/21 09:15:42;;;;;;;33.13;26.80;;;;;;;;;;5015148;28;20176;-68
2023/04/21 09:18:13;;;;;;;27.13;23.80;;;;;;;;;;5015014;28;20595;-68
2023/04/21 09:20:39;;;;;;;30.97;26.97;;;;;;;;;;5014701;28;20713;-68
2023/04/21 09:23:06;;;;;;;31.53;26.93;;;;;;;;;;5015101;28;20262;-68
2023/04/21 09:25:32;;;;;;;34.00;26.00;;;;;;;;;;4997100;28;20654;-68
2023/04/21 09:27:59;;;;;;;37.13;25.67;;;;;;;;;;5014757;28;20199;-68
2023/04/21 09:30:26;;;;;;;38.03;25.90;;;;;;;;;;5014217;28;20202;-68
2023/04/21 09:32:55;;;;;;;32.43;25.97;;;;;;;;;;5014380;28;20203;-68
2023/04/21 09:35:21;;;;;;;29.90;26.43;;;;;;;;;;4996808;28;20179;-68
2023/04/21 09:37:47;;;;;;;34.57;25.87;;;;;;;;;;4996688;28;20184;-72
2023/04/21 09:40:14;;;;;;;36.53;25.97;;;;;;;;;;5014240;28;20211;-67
2023/04/21 09:42:40;;;;;;;35.43;26.13;;;;;;;;;;4996762;28;20219;-68
2023/04/21 09:45:08;;;;;;;34.47;25.73;;;;;;;;;;5014830;28;20198;-67
2023/04/21 09:47:35;;;;;;;29.90;25.77;;;;;;;;;;4996809;28;20214;-67
2023/04/21 09:50:03;;;;;;;31.53;25.97;;;;;;;;;;5014078;28;20195;-68
2023/04/21 09:52:29;;;;;;;32.10;24.87;;;;;;;;;;4996700;28;20234;-68
2023/04/21 09:54:57;;;;;;;33.20;26.47;;;;;;;;;;4995907;28;20676;-68
2023/04/21 09:57:26;;;;;;;35.03;26.20;;;;;;;;;;4996418;28;20190;-68
2023/04/21 09:59:55;;;;;;;28.67;24.87;;;;;;;;;;5014300;28;20198;-68
2023/04/21 10:02:24;;;;;;;26.20;22.20;;;;;;;;;;4996481;28;20184;-68
2023/04/21 10:04:50;;;;;;;28.23;25.00;;;;;;;;;;5013864;28;20172;-68
2023/04/21 10:07:16;;;;;;;29.20;22.00;;;;;;;;;;4996196;28;20214;-67
2023/04/21 10:09:47;;;;;;;29.30;25.67;;;;;;;;;;5013805;28;20196;-68
2023/04/21 10:12:13;;;;;;;31.53;26.40;;;;;;;;;;5013805;28;20634;-68
2023/04/21 10:14:39;;;;;;;28.30;23.50;;;;;;;;;;5013889;28;20182;-68
2023/04/21 10:17:06;;;;;;;31.37;25.07;;;;;;;;;;5013775;28;20184;-68
2023/04/21 10:19:38;;;;;;;28.23;24.67;;;;;;;;;;5013850;28;20199;-67
2023/04/21 10:22:05;;;;;;;28.97;23.90;;;;;;;;;;5013928;28;20164;-67
2023/04/21 10:24:31;;;;;;;29.60;25.77;;;;;;;;;;4995904;28;20202;-68
2023/04/21 10:27:01;;;;;;;30.60;24.17;;;;;;;;;;4995955;28;20582;-67
2023/04/21 10:29:31;;;;;;;32.23;26.23;;;;;;;;;;5013844;28;20192;-68
2023/04/21 10:31:57;;;;;;;36.70;24.37;;;;;;;;;;5013611;28;20250;-68
2023/04/21 10:34:25;;;;;;;32.50;24.77;;;;;;;;;;4996048;28;20229;-67
2023/04/21 10:36:54;;;;;;;28.27;23.77;;;;;;;;;;5013557;28;20188;-68
2023/04/21 10:39:28;;;;;;;31.90;24.20;;;;;;;;;;5013490;28;20216;-68
2023/04/21 10:41:57;;;;;;;28.40;25.33;;;;;;;;;;5013897;28;20646;-68
2023/04/21 10:44:24;;;;;;;31.77;24.43;;;;;;;;;;4995968;28;20187;-68
2023/04/21 10:46:51;;;;;;;32.57;24.00;;;;;;;;;;5013433;28;20294;-68
2023/04/21 10:49:17;;;;;;;35.73;24.50;;;;;;;;;;5013597;28;20195;-69
2023/04/21 10:51:58;;;;;;;29.30;20.83;;;;;;;;;;4995792;28;20191;-68
2023/04/21 10:54:24;;;;;;;26.23;21.17;;;;;;;;;;4995761;28;20176;-67
2023/04/21 10:56:51;;;;;;;26.30;22.47;;;;;;;;;;5013968;28;20642;-68
2023/04/21 10:59:17;;;;;;;32.47;24.97;;;;;;;;;;5013313;28;20286;-68
2023/04/21 11:01:44;;;;;;;25.30;19.93;;;;;;;;;;5013650;28;20639;-67
2023/04/21 11:04:15;;;;;;;31.50;23.63;;;;;;;;;;5013267;28;20236;-68
2023/04/21 11:06:41;;;;;;;30.13;24.47;;;;;;;;;;5013218;28;20207;-68
2023/04/21 11:09:08;;;;;;;29.37;23.80;;;;;;;;;;5017044;28;20254;-67
2023/04/21 11:11:35;;;;;;;31.03;23.53;;;;;;;;;;5039746;23;20250;-73
2023/04/21 11:14:01;;;;;;;29.70;24.03;;;;;;;;;;5024379;28;20180;-74
2023/04/21 11:16:27;;;;;;;30.43;23.67;;;;;;;;;;5040854;28;20208;-73
2023/04/21 11:18:55;;;;;;;29.53;24.67;;;;;;;;;;5023335;28;20194;-73
2023/04/21 11:21:23;;;;;;;31.47;24.43;;;;;;;;;;5037962;28;20206;-73
2023/04/21 11:23:56;;;;;;;28.23;20.20;;;;;;;;;;5036555;28;20183;-73
2023/04/21 11:26:31;;;;;;;28.20;21.47;;;;;;;;;;5036593;28;20207;-74
2023/04/21 11:29:01;;;;;;;29.83;23.00;;;;;;;;;;5037056;28;20210;-73
2023/04/21 11:31:30;;;;;;;28.90;22.60;;;;;;;;;;5018796;28;20290;-73
2023/04/21 11:33:58;;;;;;;26.00;22.03;;;;;;;;;;5019117;28;20269;-73
2023/04/21 11:36:24;;;;;;;27.67;24.63;;;;;;;;;;5022625;28;20183;-76
2023/04/21 11:38:50;;;;;;;29.73;22.27;;;;;;;;;;5031585;28;20191;-73
2023/04/21 11:41:23;;;;;;;34.20;25.93;;;;;;;;;;5030351;28;20209;-73
2023/04/21 11:43:49;;;;;;;32.07;22.03;;;;;;;;;;5031962;28;20183;-73
2023/04/21 11:46:22;;;;;;;27.97;17.00;;;;;;;;;;5051334;28;20199;-72
2023/04/21 11:48:57;;;;;;;29.83;22.83;;;;;;;;;;5052087;28;20167;-73
2023/04/21 11:51:23;;;;;;;35.70;23.47;;;;;;;;;;5052257;28;20265;-72
2023/04/21 11:53:49;;;;;;;31.80;23.10;;;;;;;;;;5039854;28;20186;-73
2023/04/21 11:56:22;;;;;;;27.23;20.30;;;;;;;;;;5036821;28;20616;-73
2023/04/21 11:58:51;;;;;;;31.20;24.03;;;;;;;;;;5018579;28;20206;-73
2023/04/21 12:01:18;;;;;;;28.60;22.50;;;;;;;;;;5018424;28;20289;-73
2023/04/21 12:03:54;;;;;;;29.33;20.57;;;;;;;;;;5036073;28;20183;-73
2023/04/21 12:06:25;;;;;;;26.30;22.50;;;;;;;;;;5018273;28;20213;-73
2023/04/21 12:09:01;;;;;;;26.23;20.73;;;;;;;;;;5035943;28;20210;-73
2023/04/21 12:11:30;;;;;;;25.87;20.17;;;;;;;;;;5035688;28;20207;-73
2023/04/21 12:14:00;;;;;;;25.27;18.50;;;;;;;;;;5035972;28;20183;-73
2023/04/21 12:16:26;;;;;;;28.87;18.67;;;;;;;;;;5035764;28;20253;-73
2023/04/21 12:18:52;;;;;;;24.70;18.90;;;;;;;;;;5035322;28;20214;-73
2023/04/21 12:21:18;;;;;;;26.70;18.97;;;;;;;;;;5035701;28;20237;-73
2023/04/21 12:23:44;;;;;;;31.20;22.40;;;;;;;;;;5035520;28;20207;-73
2023/04/21 12:26:11;;;;;;;24.33;18.27;;;;;;;;;;5035822;28;20294;-73
2023/04/21 12:28:37;;;;;;;22.63;17.67;;;;;;;;;;5035829;28;20228;-72
2023/04/21 12:31:03;;;;;;;25.43;20.57;;;;;;;;;;5017717;28;20696;-72
2023/04/21 12:33:29;;;;;;;23.63;16.53;;;;;;;;;;5035519;28;20183;-73
2023/04/21 12:35:56;;;;;;;25.33;19.27;;;;;;;;;;5035784;28;20609;-73
2023/04/21 12:38:22;;;;;;;21.97;15.50;;;;;;;;;;5035714;28;20249;-71
2023/04/21 12:40:48;;;;;;;23.20;15.63;;;;;;;;;;5017495;28;20186;-71
2023/04/21 12:43:14;;;;;;;25.17;18.10;;;;;;;;;;5035536;28;20231;-72
2023/04/21 12:45:40;;;;;;;17.53;14.50;;;;;;;;;;5036064;28;20206;-71
2023/04/21 12:48:06;;;;;;;18.13;14.60;;;;;;;;;;5035841;28;20230;-73
2023/04/21 12:50:32;;;;;;;21.17;15.23;;;;;;;;;;5036265;28;20171;-73
2023/04/21 12:52:58;;;;;;;18.50;14.83;;;;;;;;;;5017695;28;20202;-73
2023/04/21 12:55:24;;;;;;;16.30;13.30;;;;;;;;;;5035694;28;20179;-73
2023/04/21 12:57:57;;;;;;;15.73;13.33;;;;;;;;;;5018528;28;20559;-72
2023/04/21 13:00:23;;;;;;;21.27;16.00;;;;;;;;;;5017937;28;20187;-73
2023/04/21 13:02:49;;;;;;;18.50;15.20;;;;;;;;;;5036450;28;20771;-74
2023/04/21 13:05:15;;;;;;;18.17;14.57;;;;;;;;;;5035614;28;20205;-73
2023/04/21 13:07:41;;;;;;;23.83;13.60;;;;;;;;;;5035439;28;20194;-73
2023/04/21 13:10:08;;;;;;;14.93;12.17;;;;;;;;;;5017101;28;20175;-73
2023/04/21 13:12:34;;;;;;;20.90;16.13;;;;;;;;;;5034886;28;20212;-73
2023/04/21 13:15:00;;;;;;;21.53;15.37;;;;;;;;;;5035376;28;20640;-73
2023/04/21 13:17:26;;;;;;;16.63;14.80;;;;;;;;;;5035084;28;20179;-73
2023/04/21 13:19:52;;;;;;;17.50;14.90;;;;;;;;;;5017309;28;20186;-73
2023/04/21 13:22:18;;;;;;;15.33;13.17;;;;;;;;;;5016757;28;20238;-73
2023/04/21 13:24:44;;;;;;;14.40;11.33;;;;;;;;;;5017116;28;20187;-72
2023/04/21 13:27:10;;;;;;;13.80;11.87;;;;;;;;;;5034839;28;20261;-72
2023/04/21 13:29:36;;;;;;;15.57;13.97;;;;;;;;;;5034651;28;20225;-73
2023/04/21 13:32:03;;;;;;;12.60;10.43;;;;;;;;;;5034618;28;20199;-73
2023/04/21 13:34:29;;;;;;;17.97;13.57;;;;;;;;;;5017317;28;20190;-73
2023/04/21 13:36:55;;;;;;;15.60;13.87;;;;;;;;;;5017229;28;20574;-73
2023/04/21 13:39:21;;;;;;;16.43;13.27;;;;;;;;;;5034731;28;20175;-72
2023/04/21 13:41:47;;;;;;;16.00;12.37;;;;;;;;;;5016763;28;20750;-73
2023/04/21 13:44:13;;;;;;;13.87;12.40;;;;;;;;;;5016549;28;20256;-72
2023/04/21 13:46:39;;;;;;;15.20;12.67;;;;;;;;;;5016870;28;20239;-73
2023/04/21 13:49:06;;;;;;;16.07;11.70;;;;;;;;;;5034930;28;20183;-72
2023/04/21 13:51:32;;;;;;;13.90;11.23;;;;;;;;;;5034363;28;20241;-73
2023/04/21 13:53:58;;;;;;;14.60;13.10;;;;;;;;;;5034530;28;20179;-72
2023/04/21 13:56:24;;;;;;;15.43;12.43;;;;;;;;;;5034405;28;20175;-73
2023/04/21 13:58:50;;;;;;;15.07;10.93;;;;;;;;;;5034342;28;20649;-73
2023/04/21 14:01:16;;;;;;;15.30;10.57;;;;;;;;;;5034280;28;20199;-72
2023/04/21 14:03:42;;;;;;;14.50;12.90;;;;;;;;;;5034467;28;20218;-73
2023/04/21 14:06:08;;;;;;;13.67;12.23;;;;;;;;;;5034232;28;20207;-73
2023/04/21 14:08:34;;;;;;;11.87;10.13;;;;;;;;;;5016623;28;20562;-71
2023/04/21 14:11:00;;;;;;;11.77;10.30;;;;;;;;;;5016292;28;20234;-73
2023/04/21 14:13:27;;;;;;;13.53;10.90;;;;;;;;;;5034843;28;20174;-72